Time;durP1;ratioP1;P1;durP2;ratioP2;P2;SDS_P1;SDS_P2;PMS_P1;PMS_P2;Temp;Humidity;BMP_temperature;BMP_pressure;BME280_temperature;BME280_humidity;BME280_pressure;Samples;Min_cycle;Max_cycle;Signal;HPM_P1;HPM_P2
2020/07/11 00:00:49;;;;;;;4.1;2.8;;;;;;;;;;;;;
2020/07/11 00:03:14;;;;;;;4.9;3;;;;;;;;;;;;;
2020/07/11 00:05:39;;;;;;;5.3;2.6;;;;;;;;;;;;;
2020/07/11 00:08:04;;;;;;;5.6;3.1;;;;;;;;;;;;;
2020/07/11 00:10:29;;;;;;;5.3;3;;;;;;;;;;;;;
2020/07/11 00:12:55;;;;;;;4.2;2.9;;;;;;;;;;;;;
2020/07/11 00:15:20;;;;;;;5.7;3.2;;;;;;;;;;;;;
2020/07/11 00:17:45;;;;;;;4.9;3.2;;;;;;;;;;;;;
2020/07/11 00:20:10;;;;;;;4.8;3;;;;;;;;;;;;;
2020/07/11 00:22:35;;;;;;;7.9;3.6;;;;;;;;;;;;;
2020/07/11 00:25:01;;;;;;;7.2;3.5;;;;;;;;;;;;;
2020/07/11 00:27:27;;;;;;;5.6;3.1;;;;;;;;;;;;;
2020/07/11 00:29:52;;;;;;;6.2;3.3;;;;;;;;;;;;;
2020/07/11 00:32:17;;;;;;;4.4;3.2;;;;;;;;;;;;;
2020/07/11 00:34:43;;;;;;;3.9;3.1;;;;;;;;;;;;;
2020/07/11 00:37:08;;;;;;;5.7;3;;;;;;;;;;;;;
2020/07/11 00:39:33;;;;;;;5.8;3.4;;;;;;;;;;;;;
2020/07/11 00:41:58;;;;;;;5.6;3;;;;;;;;;;;;;
2020/07/11 00:44:23;;;;;;;4.6;3;;;;;;;;;;;;;
2020/07/11 00:46:49;;;;;;;4.3;3.1;;;;;;;;;;;;;
2020/07/11 00:49:14;;;;;;;4.3;3;;;;;;;;;;;;;
2020/07/11 00:51:45;;;;;;;6;3.4;;;;;;;;;;;;;
2020/07/11 00:54:10;;;;;;;5.1;3.1;;;;;;;;;;;;;
2020/07/11 00:56:35;;;;;;;7;3.2;;;;;;;;;;;;;
2020/07/11 00:59:00;;;;;;;5;3.2;;;;;;;;;;;;;
2020/07/11 01:01:26;;;;;;;6;2.8;;;;;;;;;;;;;
2020/07/11 01:03:51;;;;;;;4.9;2.9;;;;;;;;;;;;;
2020/07/11 01:06:16;;;;;;;5.5;3.1;;;;;;;;;;;;;
2020/07/11 01:08:42;;;;;;;4.6;3;;;;;;;;;;;;;
2020/07/11 01:11:08;;;;;;;3.8;3.1;;;;;;;;;;;;;
2020/07/11 01:13:33;;;;;;;5.1;3.1;;;;;;;;;;;;;
2020/07/11 01:15:58;;;;;;;5.8;2.9;;;;;;;;;;;;;
2020/07/11 01:18:23;;;;;;;3.4;3;;;;;;;;;;;;;
2020/07/11 01:20:48;;;;;;;5.1;3.2;;;;;;;;;;;;;
2020/07/11 01:23:13;;;;;;;4.7;3.1;;;;;;;;;;;;;
2020/07/11 01:25:38;;;;;;;5.2;2.9;;;;;;;;;;;;;
2020/07/11 01:28:03;;;;;;;5.3;3.6;;;;;;;;;;;;;
2020/07/11 01:30:32;;;;;;;5.2;3.4;;;;;;;;;;;;;
2020/07/11 01:32:57;;;;;;;4.4;3.3;;;;;;;;;;;;;
2020/07/11 01:35:22;;;;;;;8;3.7;;;;;;;;;;;;;
2020/07/11 01:37:47;;;;;;;5;3.7;;;;;;;;;;;;;
2020/07/11 01:40:12;;;;;;;4.9;3.7;;;;;;;;;;;;;
2020/07/11 01:42:37;;;;;;;5;3.5;;;;;;;;;;;;;
2020/07/11 01:45:03;;;;;;;5.4;3.6;;;;;;;;;;;;;
2020/07/11 01:47:28;;;;;;;5.2;3.8;;;;;;;;;;;;;
2020/07/11 01:49:54;;;;;;;6.1;3.7;;;;;;;;;;;;;
2020/07/11 01:52:20;;;;;;;5.6;3.2;;;;;;;;;;;;;
2020/07/11 01:54:45;;;;;;;2.9;2.3;;;;;;;;;;;;;
2020/07/11 01:57:10;;;;;;;3.7;2.4;;;;;;;;;;;;;
2020/07/11 01:59:35;;;;;;;2.9;2.2;;;;;;;;;;;;;
2020/07/11 02:02:01;;;;;;;5.6;2.4;;;;;;;;;;;;;
2020/07/11 02:04:26;;;;;;;4.1;2.8;;;;;;;;;;;;;
2020/07/11 02:06:51;;;;;;;3.3;2.4;;;;;;;;;;;;;
2020/07/11 02:09:16;;;;;;;3.6;2.4;;;;;;;;;;;;;
2020/07/11 02:11:42;;;;;;;4;2.5;;;;;;;;;;;;;
2020/07/11 02:14:07;;;;;;;3.8;2.6;;;;;;;;;;;;;
2020/07/11 02:16:34;;;;;;;4;2.7;;;;;;;;;;;;;
2020/07/11 02:18:59;;;;;;;6.1;2.9;;;;;;;;;;;;;
2020/07/11 02:21:25;;;;;;;3.7;2.6;;;;;;;;;;;;;
2020/07/11 02:23:49;;;;;;;4.8;2.6;;;;;;;;;;;;;
2020/07/11 02:26:15;;;;;;;3.9;2.7;;;;;;;;;;;;;
2020/07/11 02:28:40;;;;;;;3.5;3.1;;;;;;;;;;;;;
2020/07/11 02:31:07;;;;;;;3.7;2.6;;;;;;;;;;;;;
2020/07/11 02:33:32;;;;;;;4.9;2.5;;;;;;;;;;;;;
2020/07/11 02:35:58;;;;;;;4;2.6;;;;;;;;;;;;;
2020/07/11 02:38:23;;;;;;;3;2.3;;;;;;;;;;;;;
2020/07/11 02:40:49;;;;;;;3.4;2.6;;;;;;;;;;;;;
2020/07/11 02:43:14;;;;;;;4.2;2.8;;;;;;;;;;;;;
2020/07/11 02:45:41;;;;;;;3.1;2.4;;;;;;;;;;;;;
2020/07/11 02:48:06;;;;;;;5.1;2.7;;;;;;;;;;;;;
2020/07/11 02:50:32;;;;;;;5.1;2.4;;;;;;;;;;;;;
2020/07/11 02:52:57;;;;;;;2.8;2.2;;;;;;;;;;;;;
2020/07/11 02:55:23;;;;;;;3.2;2.2;;;;;;;;;;;;;
2020/07/11 02:57:48;;;;;;;3.3;2.1;;;;;;;;;;;;;
2020/07/11 03:00:14;;;;;;;3.4;2.1;;;;;;;;;;;;;
2020/07/11 03:02:39;;;;;;;2.9;1.9;;;;;;;;;;;;;
2020/07/11 03:05:05;;;;;;;2.4;2.2;;;;;;;;;;;;;
2020/07/11 03:07:30;;;;;;;2.6;2.2;;;;;;;;;;;;;
2020/07/11 03:09:56;;;;;;;2.7;2.5;;;;;;;;;;;;;
2020/07/11 03:12:21;;;;;;;4.1;2.3;;;;;;;;;;;;;
2020/07/11 03:14:46;;;;;;;3.2;2.4;;;;;;;;;;;;;
2020/07/11 03:17:11;;;;;;;3.2;2.5;;;;;;;;;;;;;
2020/07/11 03:19:36;;;;;;;2.6;2.3;;;;;;;;;;;;;
2020/07/11 03:22:01;;;;;;;3.3;2.5;;;;;;;;;;;;;
2020/07/11 03:24:26;;;;;;;3;2.6;;;;;;;;;;;;;
2020/07/11 03:26:52;;;;;;;4.2;2.7;;;;;;;;;;;;;
2020/07/11 03:29:18;;;;;;;4.3;2.5;;;;;;;;;;;;;
2020/07/11 03:31:43;;;;;;;4.1;2.3;;;;;;;;;;;;;
2020/07/11 03:34:08;;;;;;;3.8;2.5;;;;;;;;;;;;;
2020/07/11 03:36:35;;;;;;;3.6;2.6;;;;;;;;;;;;;
2020/07/11 03:38:59;;;;;;;4.1;2.5;;;;;;;;;;;;;
2020/07/11 03:41:26;;;;;;;3;2.4;;;;;;;;;;;;;
2020/07/11 03:43:51;;;;;;;4.4;3;;;;;;;;;;;;;
2020/07/11 03:46:17;;;;;;;4.6;2.7;;;;;;;;;;;;;
2020/07/11 03:48:42;;;;;;;3.4;2.5;;;;;;;;;;;;;
2020/07/11 03:51:08;;;;;;;3.4;2.6;;;;;;;;;;;;;
2020/07/11 03:53:33;;;;;;;3.2;2.3;;;;;;;;;;;;;
2020/07/11 03:55:59;;;;;;;2.8;2;;;;;;;;;;;;;
2020/07/11 03:58:24;;;;;;;2.5;2.1;;;;;;;;;;;;;
2020/07/11 04:02:30;;;;;;;2.8;2.3;;;;;;;17.21;87.3125;939.8837;;;;
2020/07/11 04:05:01;;;;;;;3;2.3;;;;;;;17.2;87.5791;939.9225;;;;
2020/07/11 04:07:26;;;;;;;3.1;2.3;;;;;;;17.17;87.98926;939.9309;;;;
2020/07/11 04:09:56;;;;;;;2.9;2.4;;;;;;;17.15;87.75391;940.01;;;;
2020/07/11 04:12:21;;;;;;;3.5;2.7;;;;;;;17.1;87.39746;940.0227;;;;
2020/07/11 04:14:50;;;;;;;3.6;2.4;;;;;;;16.89;87.96777;940.0106;;;;
2020/07/11 04:17:17;;;;;;;3.2;2.4;;;;;;;16.95;87.81836;939.9801;;;;
2020/07/11 04:19:42;;;;;;;3.4;2.4;;;;;;;16.83;87.71191;940.0105;;;;
2020/07/11 04:22:10;;;;;;;3.4;2.2;;;;;;;16.82;88.09277;939.9954;;;;
2020/07/11 04:24:35;;;;;;;2.4;2.2;;;;;;;16.83;88.48828;939.9785;;;;
2020/07/11 04:27:05;;;;;;;3;2.3;;;;;;;16.87;88.68262;939.9955;;;;
2020/07/11 04:29:30;;;;;;;2.5;2.3;;;;;;;16.91;89.3623;940.1278;;;;
2020/07/11 04:31:55;;;;;;;3.2;2.1;;;;;;;16.98;87.16309;940.1631;;;;
2020/07/11 04:34:20;;;;;;;2.8;2.2;;;;;;;17;86.83105;940.1975;;;;
2020/07/11 04:36:47;;;;;;;3.1;2.1;;;;;;;16.97;87.76367;940.2823;;;;
2020/07/11 04:39:12;;;;;;;3.3;2.1;;;;;;;16.77;88.59277;940.298;;;;
2020/07/11 04:41:37;;;;;;;3.5;2.2;;;;;;;16.81;89.60645;940.3741;;;;
2020/07/11 04:44:02;;;;;;;2.7;2.3;;;;;;;16.53;90.7666;940.3812;;;;
2020/07/11 04:46:33;;;;;;;3.1;2.2;;;;;;;16.61;90.89941;940.4029;;;;
2020/07/11 04:49:02;;;;;;;2.1;1.9;;;;;;;16.35;90.10645;940.4678;;;;
2020/07/11 04:51:27;;;;;;;2.8;2.2;;;;;;;16.28;90.1377;940.5922;;;;
2020/07/11 04:53:56;;;;;;;2.8;2.3;;;;;;;16.37;90.90625;940.6653;;;;
2020/07/11 04:56:21;;;;;;;2.7;2.4;;;;;;;16.54;89.68164;940.623;;;;
2020/07/11 04:58:47;;;;;;;5.5;2.2;;;;;;;16.53;88.80078;940.6602;;;;
2020/07/11 05:01:12;;;;;;;3.6;2;;;;;;;16.74;89.47754;940.7053;;;;
2020/07/11 05:03:39;;;;;;;3.3;2;;;;;;;16.81;89.89746;940.7842;;;;
2020/07/11 05:06:04;;;;;;;2;1.7;;;;;;;16.77;88.63965;940.8159;;;;
2020/07/11 05:08:30;;;;;;;3.4;2.1;;;;;;;16.74;89.53516;940.8694;;;;
2020/07/11 05:10:55;;;;;;;4.5;2.1;;;;;;;16.68;90.38086;941.0123;;;;
2020/07/11 05:13:22;;;;;;;2.6;2;;;;;;;16.73;90.66895;941.0231;;;;
2020/07/11 05:15:47;;;;;;;2.6;1.8;;;;;;;16.73;90.03125;941.0786;;;;
2020/07/11 05:18:14;;;;;;;2.3;1.7;;;;;;;16.88;89.86621;941.1055;;;;
2020/07/11 05:20:39;;;;;;;2.5;1.9;;;;;;;16.95;89.33496;941.067;;;;
2020/07/11 05:23:05;;;;;;;3.5;1.7;;;;;;;17.01;89.33594;941.092;;;;
2020/07/11 05:25:30;;;;;;;2;1.8;;;;;;;17;88.74316;941.0865;;;;
2020/07/11 05:27:57;;;;;;;2.3;1.8;;;;;;;17;88.8584;941.0792;;;;
2020/07/11 05:30:22;;;;;;;2.1;1.7;;;;;;;17.11;88.45215;941.0825;;;;
2020/07/11 05:32:50;;;;;;;2.9;1.7;;;;;;;17.15;87.87012;941.1038;;;;
2020/07/11 05:35:15;;;;;;;4;1.9;;;;;;;17.09;88.1123;941.1365;;;;
2020/07/11 05:37:44;;;;;;;2.8;1.6;;;;;;;17.17;88.55762;941.1509;;;;
2020/07/11 05:40:09;;;;;;;3.9;1.9;;;;;;;17.11;87.55957;941.1613;;;;
2020/07/11 05:42:36;;;;;;;3;1.9;;;;;;;17;87.6416;941.1919;;;;
2020/07/11 05:45:01;;;;;;;3.5;2.2;;;;;;;17.17;89.43848;941.1719;;;;
2020/07/11 05:47:28;;;;;;;2.7;1.9;;;;;;;17.38;88.7041;941.2294;;;;
2020/07/11 05:49:53;;;;;;;2.5;1.9;;;;;;;17.49;87.58887;941.2363;;;;
2020/07/11 05:52:21;;;;;;;2.4;1.8;;;;;;;17.59;85.83301;941.2697;;;;
2020/07/11 05:54:46;;;;;;;4;2.3;;;;;;;17.6;87.15723;941.2003;;;;
2020/07/11 05:57:12;;;;;;;3.1;2.1;;;;;;;17.67;86.49902;941.219;;;;
2020/07/11 05:59:37;;;;;;;2.6;2;;;;;;;17.77;85.98438;941.1913;;;;
2020/07/11 06:02:04;;;;;;;2.7;1.8;;;;;;;17.87;85.72559;941.262;;;;
2020/07/11 06:04:29;;;;;;;2.8;2;;;;;;;17.97;86.17383;941.2583;;;;
2020/07/11 06:06:55;;;;;;;2.5;2;;;;;;;18.02;85.60449;941.2553;;;;
2020/07/11 06:09:20;;;;;;;2.4;1.8;;;;;;;18.06;84.86914;941.3224;;;;
2020/07/11 06:11:47;;;;;;;1.8;1.5;;;;;;;18.14;82.58301;941.2794;;;;
2020/07/11 06:14:13;;;;;;;2.3;1.7;;;;;;;18.25;83.2207;941.207;;;;
2020/07/11 06:16:39;;;;;;;2.1;1.7;;;;;;;18.3;83.26465;941.2724;;;;
2020/07/11 06:19:04;;;;;;;2.5;1.5;;;;;;;18.33;83.71289;941.2461;;;;
2020/07/11 06:21:32;;;;;;;2.1;1.8;;;;;;;18.39;82.45801;941.2442;;;;
2020/07/11 06:23:57;;;;;;;3.7;1.9;;;;;;;18.34;83.45898;941.2161;;;;
2020/07/11 06:26:22;;;;;;;4.3;2;;;;;;;18.43;83.71875;941.2562;;;;
2020/07/11 06:28:47;;;;;;;2.6;1.8;;;;;;;18.35;81.4707;941.1789;;;;
2020/07/11 06:31:16;;;;;;;2.6;1.7;;;;;;;18.29;82.50684;941.25;;;;
2020/07/11 06:33:41;;;;;;;2.4;1.8;;;;;;;18.29;83.69238;941.2596;;;;
2020/07/11 06:36:06;;;;;;;4.3;2;;;;;;;18.22;82.35449;941.2137;;;;
2020/07/11 06:38:31;;;;;;;2.7;1.8;;;;;;;18.28;81.2373;941.1792;;;;
2020/07/11 06:40:57;;;;;;;3.5;1.8;;;;;;;18.39;81.64258;941.1155;;;;
2020/07/11 06:43:22;;;;;;;3.2;1.9;;;;;;;18.34;81.86426;941.1605;;;;
2020/07/11 06:45:50;;;;;;;2.1;1.6;;;;;;;18.38;81.70996;941.197;;;;
2020/07/11 06:48:15;;;;;;;1.8;1.5;;;;;;;18.26;83.58301;941.2004;;;;
2020/07/11 06:50:41;;;;;;;2;1.5;;;;;;;18.19;83.84668;941.2352;;;;
2020/07/11 06:53:06;;;;;;;1.9;1.6;;;;;;;18.23;84.59863;941.2147;;;;
2020/07/11 06:55:31;;;;;;;3.1;1.6;;;;;;;18.13;84.55664;941.2184;;;;
2020/07/11 06:57:57;;;;;;;3.3;1.5;;;;;;;18.23;83.04102;941.193;;;;
2020/07/11 07:00:22;;;;;;;2.2;1.6;;;;;;;18.13;80.79199;941.1063;;;;
2020/07/11 07:02:47;;;;;;;3.2;1.6;;;;;;;18.13;81.0127;941.1892;;;;
2020/07/11 07:05:13;;;;;;;5.3;1.5;;;;;;;18.25;81.36133;941.2385;;;;
2020/07/11 07:07:39;;;;;;;2.1;1.6;;;;;;;18.2;80.88672;941.2446;;;;
2020/07/11 07:10:05;;;;;;;2.8;1.6;;;;;;;18.29;82.34473;941.2773;;;;
2020/07/11 07:12:30;;;;;;;3.9;1.7;;;;;;;18.37;82.30176;941.2842;;;;
2020/07/11 07:14:55;;;;;;;1.6;1.5;;;;;;;18.4;82.69043;941.3507;;;;
2020/07/11 07:17:21;;;;;;;2.9;1.7;;;;;;;18.43;83.14844;941.3174;;;;
2020/07/11 07:19:46;;;;;;;1.8;1.4;;;;;;;18.4;81.53906;941.3821;;;;
2020/07/11 07:22:11;;;;;;;1.6;1.4;;;;;;;18.53;82.44824;941.3933;;;;
2020/07/11 07:24:36;;;;;;;3;1.4;;;;;;;18.38;81.46582;941.3527;;;;
2020/07/11 07:27:01;;;;;;;3;1.6;;;;;;;18.43;82.34668;941.3859;;;;
2020/07/11 07:29:26;;;;;;;2;1.4;;;;;;;18.32;81.27051;941.3978;;;;
2020/07/11 07:31:52;;;;;;;2.4;1.5;;;;;;;18.35;81.87988;941.4393;;;;
2020/07/11 07:34:17;;;;;;;2.8;1.5;;;;;;;18.39;81.14258;941.4097;;;;
2020/07/11 07:36:42;;;;;;;3.3;1.5;;;;;;;18.41;81.9707;941.3619;;;;
2020/07/11 07:39:07;;;;;;;3.1;1.6;;;;;;;18.13;82.65137;941.3666;;;;
2020/07/11 07:41:32;;;;;;;3.7;1.9;;;;;;;18.17;84.04004;941.3741;;;;
2020/07/11 07:43:58;;;;;;;3;1.8;;;;;;;18.27;84.31641;941.41;;;;
2020/07/11 07:46:23;;;;;;;3.5;1.6;;;;;;;18.25;82.83691;941.4376;;;;
2020/07/11 07:48:48;;;;;;;2.3;1.4;;;;;;;18.28;83.06348;941.4324;;;;
2020/07/11 07:51:13;;;;;;;1.4;1.3;;;;;;;18.23;81.26367;941.4387;;;;
2020/07/11 07:53:38;;;;;;;2.5;1.4;;;;;;;18.12;80.19922;941.4448;;;;
2020/07/11 07:56:03;;;;;;;3.1;1.6;;;;;;;18.1;80.91504;941.4944;;;;
2020/07/11 07:58:29;;;;;;;2.9;1.6;;;;;;;18.08;80.53809;941.5011;;;;
2020/07/11 08:00:54;;;;;;;1.9;1.4;;;;;;;18.22;80.57617;941.5002;;;;
2020/07/11 08:03:19;;;;;;;1.7;1.1;;;;;;;18.24;80.23047;941.4991;;;;
2020/07/11 08:05:44;;;;;;;3.2;1.4;;;;;;;18.31;80.31348;941.5045;;;;
2020/07/11 08:08:09;;;;;;;2;1.3;;;;;;;18.49;80.24023;941.552;;;;
2020/07/11 08:10:34;;;;;;;5.1;1.5;;;;;;;18.67;82.32227;941.5312;;;;
2020/07/11 08:12:59;;;;;;;2.3;1.3;;;;;;;18.81;81.97656;941.4989;;;;
2020/07/11 08:15:27;;;;;;;3.4;1.6;;;;;;;18.96;83.24902;941.5144;;;;
2020/07/11 08:17:54;;;;;;;2.7;1.4;;;;;;;19.01;80.26758;941.5062;;;;
2020/07/11 08:20:19;;;;;;;3.8;1.6;;;;;;;19.12;81.5332;941.5296;;;;
2020/07/11 08:22:46;;;;;;;2;1.2;;;;;;;19.27;80.78125;941.535;;;;
2020/07/11 08:25:11;;;;;;;1.5;1.2;;;;;;;19.39;78.69238;941.5845;;;;
2020/07/11 08:27:36;;;;;;;3.7;1.4;;;;;;;19.43;77.12695;941.5662;;;;
2020/07/11 08:30:01;;;;;;;2;1.1;;;;;;;19.43;77.37207;941.5244;;;;
2020/07/11 08:32:26;;;;;;;1.6;1.1;;;;;;;19.56;78.03516;941.5503;;;;
2020/07/11 08:34:51;;;;;;;1.5;1.1;;;;;;;19.56;78.79395;941.5389;;;;
2020/07/11 08:37:16;;;;;;;2.1;1.3;;;;;;;19.73;77.2959;941.5617;;;;
2020/07/11 08:39:41;;;;;;;1.8;1.2;;;;;;;19.91;79.33398;941.5405;;;;
2020/07/11 08:42:06;;;;;;;2.2;1.1;;;;;;;20.03;73.88379;941.535;;;;
2020/07/11 08:44:32;;;;;;;1.2;0.9;;;;;;;20.12;75.58008;941.5136;;;;
2020/07/11 08:46:57;;;;;;;1.6;1.1;;;;;;;20.09;76.18066;941.5942;;;;
2020/07/11 08:49:23;;;;;;;1.6;1;;;;;;;20.34;74.46094;941.5234;;;;
2020/07/11 08:51:48;;;;;;;1.3;1;;;;;;;20.05;71.13281;941.537;;;;
2020/07/11 08:54:13;;;;;;;1;0.9;;;;;;;19.91;74.83105;941.5446;;;;
2020/07/11 08:56:38;;;;;;;2.1;1;;;;;;;20.01;76.13184;941.6102;;;;
2020/07/11 08:59:04;;;;;;;1.9;1.2;;;;;;;20.23;76.64941;941.5898;;;;
2020/07/11 09:01:30;;;;;;;2;1.1;;;;;;;20.4;76.05859;941.6063;;;;
2020/07/11 09:03:55;;;;;;;4.2;1;;;;;;;20.3;76.19336;941.6046;;;;
2020/07/11 09:07:47;;;;;;;1.9;1.1;;;;;;;20.42;75.10352;941.67;;;;
2020/07/11 09:10:12;;;;;;;1.4;1;;;;;;;20.25;73.41797;941.7003;;;;
2020/07/11 09:12:37;;;;;;;1.6;1;;;;;;;20.23;74.53418;941.7889;;;;
2020/07/11 09:15:02;;;;;;;1.1;0.9;;;;;;;20.13;73.01367;941.6984;;;;
2020/07/11 09:17:27;;;;;;;1.1;0.8;;;;;;;20.23;73.13477;941.8041;;;;
2020/07/11 09:19:53;;;;;;;2.4;0.8;;;;;;;20.1;72.09766;941.7623;;;;
2020/07/11 09:22:27;;;;;;;0.8;0.8;;;;;;;20.03;76.42773;941.7726;;;;
2020/07/11 09:26:45;;;;;;;2.1;0.9;;;;;;;19.75;77.56836;941.8408;;;;
2020/07/11 09:29:10;;;;;;;2;1.2;;;;;;;19.81;77.61328;941.8793;;;;
2020/07/11 09:33:19;;;;;;;1.4;1.2;;;;;;;19.9;77.16406;941.8403;;;;
2020/07/11 09:35:57;;;;;;;2;1;;;;;;;20.09;77.56934;941.7996;;;;
2020/07/11 09:38:23;;;;;;;2;1;;;;;;;19.94;78.93066;941.8027;;;;
2020/07/11 09:40:50;;;;;;;2.4;1;;;;;;;19.9;78.20215;941.745;;;;
2020/07/11 09:44:25;;;;;;;2.4;1;;;;;;;20.16;77.53516;941.7803;;;;
2020/07/11 09:47:29;;;;;;;2.8;1.2;;;;;;;20.48;77.04199;941.8526;;;;
2020/07/11 09:49:54;;;;;;;1.8;1.4;;;;;;;20.39;77.22559;941.8903;;;;
2020/07/11 09:52:20;;;;;;;1.8;1.2;;;;;;;20.62;74.67188;941.9255;;;;
2020/07/11 09:54:45;;;;;;;2.7;1.5;;;;;;;20.35;75.80566;941.901;;;;
2020/07/11 09:57:11;;;;;;;3.7;1.4;;;;;;;19.99;78.16895;941.9956;;;;
2020/07/11 09:59:37;;;;;;;2.5;1.5;;;;;;;19.95;78.02246;941.9949;;;;
2020/07/11 10:02:02;;;;;;;2.8;1.5;;;;;;;20.17;76.13574;942.0066;;;;
2020/07/11 10:04:27;;;;;;;2.7;1.4;;;;;;;20.2;76.90137;942.0584;;;;
2020/07/11 10:06:52;;;;;;;2.2;1.3;;;;;;;20.09;75.85352;942.0027;;;;
2020/07/11 10:09:18;;;;;;;3.1;1.2;;;;;;;20.05;75.15918;942.0179;;;;
2020/07/11 10:11:43;;;;;;;2.4;1.4;;;;;;;19.84;76.76855;941.9849;;;;
2020/07/11 10:14:09;;;;;;;2;1.5;;;;;;;19.92;76.93359;942.0154;;;;
2020/07/11 10:16:34;;;;;;;2.2;1.6;;;;;;;20.15;75.09375;941.9867;;;;
2020/07/11 10:19:00;;;;;;;2.4;1.4;;;;;;;20.38;75.95117;942.0491;;;;
2020/07/11 10:21:25;;;;;;;2.3;1.3;;;;;;;20.51;76.93066;942.0363;;;;
2020/07/11 10:23:51;;;;;;;1.5;1.4;;;;;;;20.62;74.9873;942.0176;;;;
2020/07/11 10:26:16;;;;;;;1.9;1.2;;;;;;;20.65;74.55957;941.9322;;;;
2020/07/11 10:28:41;;;;;;;2.5;1.2;;;;;;;20.8;73.43945;941.9819;;;;
2020/07/11 10:31:06;;;;;;;1.5;1.3;;;;;;;20.64;72.5127;941.9891;;;;
2020/07/11 10:33:31;;;;;;;1.2;1.1;;;;;;;20.7;74.28809;941.9821;;;;
2020/07/11 10:35:56;;;;;;;1.6;1.1;;;;;;;20.76;72.68555;941.9319;;;;
2020/07/11 10:38:21;;;;;;;1.6;1.2;;;;;;;20.92;72.72363;941.9283;;;;
2020/07/11 10:40:47;;;;;;;4;1.2;;;;;;;21.08;71.89551;942.0552;;;;
2020/07/11 10:43:12;;;;;;;2.8;1.4;;;;;;;21.15;72.54883;942.0243;;;;
2020/07/11 10:45:40;;;;;;;2.1;1;;;;;;;20.99;70.88574;941.9656;;;;
2020/07/11 10:48:05;;;;;;;1.2;1;;;;;;;20.89;71.09277;942.0555;;;;
2020/07/11 10:50:33;;;;;;;1.4;1;;;;;;;20.89;70.74219;942.1381;;;;
2020/07/11 10:52:58;;;;;;;1.4;0.9;;;;;;;20.59;70.25098;942.1138;;;;
2020/07/11 10:55:24;;;;;;;2;1;;;;;;;20.62;70.83887;942.199;;;;
2020/07/11 10:57:50;;;;;;;1.3;1;;;;;;;20.3;72.86719;942.2272;;;;
2020/07/11 11:00:15;;;;;;;2;1.2;;;;;;;20.08;73.92676;942.2349;;;;
2020/07/11 11:02:41;;;;;;;1.8;1.2;;;;;;;19.9;74.11816;942.2512;;;;
2020/07/11 11:05:10;;;;;;;3.3;1.1;;;;;;;19.47;74.24512;942.2166;;;;
2020/07/11 11:07:36;;;;;;;1.4;1;;;;;;;19.58;74.92773;942.2615;;;;
2020/07/11 11:10:02;;;;;;;1.8;1.3;;;;;;;19.65;75.19629;942.305;;;;
2020/07/11 11:12:27;;;;;;;2.3;1.1;;;;;;;19.43;75.42578;942.2189;;;;
2020/07/11 11:14:55;;;;;;;1.7;1.2;;;;;;;19.13;77.06348;942.3908;;;;
2020/07/11 11:17:20;;;;;;;2.6;1.3;;;;;;;19.12;76.8291;942.4264;;;;
2020/07/11 11:19:47;;;;;;;2.3;1.2;;;;;;;18.93;77.57422;942.4003;;;;
2020/07/11 11:22:12;;;;;;;3.9;1.3;;;;;;;18.65;78.46875;942.4664;;;;
2020/07/11 11:24:38;;;;;;;1.4;1;;;;;;;18.56;78.42969;942.4816;;;;
2020/07/11 11:27:03;;;;;;;1.8;0.8;;;;;;;18.35;79.63574;942.5012;;;;
2020/07/11 11:29:29;;;;;;;0.9;0.7;;;;;;;18.22;79.33398;942.4925;;;;
2020/07/11 11:31:55;;;;;;;0.8;0.7;;;;;;;18.37;79.43066;942.551;;;;
2020/07/11 11:34:21;;;;;;;1.6;0.8;;;;;;;18.35;78.83398;942.594;;;;
2020/07/11 11:36:46;;;;;;;1.2;0.7;;;;;;;18.28;79.37793;942.5869;;;;
2020/07/11 11:39:14;;;;;;;0.8;0.7;;;;;;;18.25;79.4209;942.5711;;;;
2020/07/11 11:41:39;;;;;;;2.3;0.9;;;;;;;18.18;78.92969;942.6258;;;;
2020/07/11 11:44:05;;;;;;;1.4;1.3;;;;;;;18.3;78.34766;942.577;;;;
2020/07/11 11:46:30;;;;;;;2.8;1.8;;;;;;;18.19;78.61719;942.5765;;;;
2020/07/11 11:48:57;;;;;;;2.8;2.5;;;;;;;18.13;79.66504;942.6795;;;;
2020/07/11 11:51:22;;;;;;;4.3;2.8;;;;;;;18.14;78.21484;942.7658;;;;
2020/07/11 11:53:49;;;;;;;2.8;2.6;;;;;;;18.17;78.13965;942.8337;;;;
2020/07/11 11:56:14;;;;;;;3;2.7;;;;;;;17.91;78.89551;942.9381;;;;
2020/07/11 11:58:41;;;;;;;3;2.7;;;;;;;17.81;80.30273;942.9673;;;;
2020/07/11 12:01:09;;;;;;;3.5;3.2;;;;;;;17.96;80.34375;942.9803;;;;
2020/07/11 12:03:40;;;;;;;4.5;3.5;;;;;;;17.96;79.95898;943.0183;;;;
2020/07/11 12:05:59;;;;;;;3.8;3.5;;;;;;;18.05;79.16211;943.0272;;;;
2020/07/11 12:08:24;;;;;;;3.9;3.5;;;;;;;18.07;80.43359;942.9713;;;;
2020/07/11 12:10:49;;;;;;;3.3;3;;;;;;;18.14;79.92383;942.9648;;;;
2020/07/11 12:13:14;;;;;;;4.3;3.1;;;;;;;18.35;80.22949;942.9464;;;;
2020/07/11 12:15:40;;;;;;;3.2;2.7;;;;;;;18.45;79.93359;942.976;;;;
2020/07/11 12:18:06;;;;;;;2.8;2.3;;;;;;;18.58;79.0957;942.9637;;;;
2020/07/11 12:20:31;;;;;;;2.7;2.4;;;;;;;18.52;78.79492;942.9822;;;;
2020/07/11 12:22:56;;;;;;;2.7;2.5;;;;;;;18.62;77.85742;943.0334;;;;
2020/07/11 12:25:22;;;;;;;2.4;2.2;;;;;;;18.49;77.45117;943.0439;;;;
2020/07/11 12:27:47;;;;;;;2.6;2.4;;;;;;;18.48;77.76367;943.0828;;;;
2020/07/11 12:30:15;;;;;;;4.1;2.9;;;;;;;18.42;78.52148;943.0762;;;;
2020/07/11 12:32:40;;;;;;;3;2.7;;;;;;;18.26;77.09766;943.1417;;;;
2020/07/11 12:35:08;;;;;;;3.5;2.5;;;;;;;18.06;78.22461;943.1648;;;;
2020/07/11 12:37:33;;;;;;;3.9;2.7;;;;;;;18.07;78.50488;943.2155;;;;
2020/07/11 12:39:58;;;;;;;3.2;3;;;;;;;18.07;77.83105;943.2647;;;;
2020/07/11 12:42:23;;;;;;;3.6;2.9;;;;;;;18.08;77.88965;943.2533;;;;
2020/07/11 12:44:48;;;;;;;4.3;3.4;;;;;;;17.87;77.05273;943.2561;;;;
2020/07/11 12:47:13;;;;;;;3.5;3.2;;;;;;;17.67;78.67676;943.301;;;;
2020/07/11 12:49:40;;;;;;;3.8;3.5;;;;;;;17.57;79.59863;943.3541;;;;
2020/07/11 12:52:05;;;;;;;4;3.7;;;;;;;17.78;79.64941;943.3115;;;;
2020/07/11 12:54:31;;;;;;;5.5;4.3;;;;;;;17.83;79.7041;943.226;;;;
2020/07/11 12:56:56;;;;;;;5.6;4.5;;;;;;;17.75;79.6543;943.3537;;;;
2020/07/11 12:59:23;;;;;;;4.6;4.2;;;;;;;17.73;79.60449;943.3072;;;;
2020/07/11 13:01:48;;;;;;;7.5;5;;;;;;;17.66;80.3125;943.3921;;;;
2020/07/11 13:04:14;;;;;;;5.8;4.4;;;;;;;17.74;79.98926;943.4625;;;;
2020/07/11 13:06:39;;;;;;;5.4;4.8;;;;;;;17.61;80.47656;943.4052;;;;
2020/07/11 13:09:06;;;;;;;4.8;4.4;;;;;;;17.26;81.89648;943.3636;;;;
2020/07/11 13:11:31;;;;;;;5.1;4.6;;;;;;;17.2;82.95313;943.3059;;;;
2020/07/11 13:13:56;;;;;;;4.6;4.2;;;;;;;17.44;81.53613;943.331;;;;
2020/07/11 13:16:22;;;;;;;4.4;4;;;;;;;17.13;82.04688;943.4433;;;;
2020/07/11 13:18:47;;;;;;;4.4;4;;;;;;;17.29;82.23828;943.3248;;;;
2020/07/11 13:21:12;;;;;;;4.5;3.9;;;;;;;17.39;81.91992;943.4141;;;;
2020/07/11 13:23:37;;;;;;;4.2;3.8;;;;;;;17.63;81.17871;943.4431;;;;
2020/07/11 13:26:02;;;;;;;3.9;3.5;;;;;;;17.88;80.10742;943.397;;;;
2020/07/11 13:28:27;;;;;;;4.1;3.5;;;;;;;17.95;78.50586;943.3415;;;;
2020/07/11 13:30:53;;;;;;;3.9;3;;;;;;;17.75;78.92285;943.3755;;;;
2020/07/11 13:33:18;;;;;;;3.4;3.1;;;;;;;17.9;78.0918;943.4564;;;;
2020/07/11 13:35:43;;;;;;;3.4;3.1;;;;;;;18.02;78.07715;943.5279;;;;
2020/07/11 13:38:09;;;;;;;4.4;3.3;;;;;;;18.13;77.69043;943.5251;;;;
2020/07/11 13:40:34;;;;;;;4.1;2.9;;;;;;;18.31;77.31641;943.5572;;;;
2020/07/11 13:43:00;;;;;;;3.3;3;;;;;;;18.36;78.72949;943.6033;;;;
2020/07/11 13:45:27;;;;;;;4.3;3.4;;;;;;;18.4;78.56348;943.7183;;;;
2020/07/11 13:47:55;;;;;;;4.1;3.7;;;;;;;18.25;77.16602;943.7046;;;;
2020/07/11 13:50:20;;;;;;;4.9;3.5;;;;;;;18.43;77.91699;943.7996;;;;
2020/07/11 13:52:45;;;;;;;3.5;3.2;;;;;;;18.3;78.25488;943.7903;;;;
2020/07/11 13:55:10;;;;;;;3.6;3.2;;;;;;;18.51;77.14258;943.8106;;;;
2020/07/11 13:57:36;;;;;;;3.9;3.1;;;;;;;18.48;77.08984;943.8652;;;;
2020/07/11 14:00:01;;;;;;;3.2;2.6;;;;;;;18.41;77.20508;943.8818;;;;
2020/07/11 14:02:29;;;;;;;3.4;2.3;;;;;;;17.88;79.67871;943.8594;;;;
2020/07/11 14:04:54;;;;;;;4.2;2.7;;;;;;;18.06;79.81641;943.8225;;;;
2020/07/11 14:07:20;;;;;;;3.7;2.9;;;;;;;18.19;78.56055;943.8381;;;;
2020/07/11 14:09:44;;;;;;;6.4;3.2;;;;;;;18.27;77.68066;943.8544;;;;
2020/07/11 14:12:11;;;;;;;4.4;4;;;;;;;17.88;77.19434;943.791;;;;
2020/07/11 14:14:36;;;;;;;5;4.5;;;;;;;17.6;78.56055;943.8006;;;;
2020/07/11 14:17:05;;;;;;;5;4.5;;;;;;;17.63;80.57324;943.8257;;;;
2020/07/11 14:19:34;;;;;;;6.4;4.6;;;;;;;17.63;79.9248;943.8925;;;;
2020/07/11 14:21:59;;;;;;;5.6;5.1;;;;;;;17.75;81.53516;943.9675;;;;
2020/07/11 14:24:24;;;;;;;5.4;4.9;;;;;;;17.76;81.49219;944.0577;;;;
2020/07/11 14:26:49;;;;;;;5.8;4.7;;;;;;;17.84;79.78711;944.1209;;;;
2020/07/11 14:29:14;;;;;;;5;4.5;;;;;;;17.84;80.75098;944.1516;;;;
2020/07/11 14:31:42;;;;;;;5.9;5;;;;;;;17.62;80.23535;944.1005;;;;
2020/07/11 14:34:06;;;;;;;5;4.5;;;;;;;17.59;81.58594;944.0472;;;;
2020/07/11 14:36:32;;;;;;;5.9;4.2;;;;;;;17.66;81.13672;944.0815;;;;
2020/07/11 14:38:57;;;;;;;4.2;3.8;;;;;;;17.5;79.51758;944.0801;;;;
2020/07/11 14:41:23;;;;;;;5.6;4.1;;;;;;;17.22;82.6084;944.1351;;;;
2020/07/11 14:43:48;;;;;;;5;4.6;;;;;;;17.32;82.94043;944.2841;;;;
2020/07/11 14:46:15;;;;;;;6.3;4.5;;;;;;;17.19;83.99512;944.3434;;;;
2020/07/11 14:48:41;;;;;;;4.8;4.3;;;;;;;16.98;85.18164;944.428;;;;
2020/07/11 14:51:06;;;;;;;4.1;3.6;;;;;;;16.94;83.61035;944.5144;;;;
2020/07/11 14:53:31;;;;;;;5;3.6;;;;;;;16.82;83.86426;944.5226;;;;
2020/07/11 14:55:57;;;;;;;3.7;2.9;;;;;;;16.93;82.98145;944.5338;;;;
2020/07/11 14:58:22;;;;;;;2.8;2.6;;;;;;;17.01;83.11426;944.551;;;;
2020/07/11 15:00:51;;;;;;;2.4;2.1;;;;;;;16.92;81.85742;944.5997;;;;
2020/07/11 15:03:16;;;;;;;2.2;1.8;;;;;;;17.02;80.65723;944.5931;;;;
2020/07/11 15:05:41;;;;;;;3.4;2;;;;;;;17.08;80.55371;944.5637;;;;
2020/07/11 15:08:06;;;;;;;2.8;2;;;;;;;17.03;80.27734;944.5778;;;;
2020/07/11 15:10:31;;;;;;;3;2.2;;;;;;;16.75;82.22949;944.4353;;;;
2020/07/11 15:12:56;;;;;;;2.9;2.3;;;;;;;16.79;83.08301;944.5695;;;;
2020/07/11 15:15:27;;;;;;;3.3;1.9;;;;;;;16.79;82.62207;944.5284;;;;
2020/07/11 15:17:53;;;;;;;1.9;1.6;;;;;;;16.76;83.22656;944.5294;;;;
2020/07/11 15:20:18;;;;;;;2.6;1.9;;;;;;;16.9;82.7334;944.5379;;;;
2020/07/11 15:22:45;;;;;;;2.5;2.1;;;;;;;17.02;83.29004;944.5167;;;;
2020/07/11 15:25:10;;;;;;;2.2;1.9;;;;;;;17.01;81.43457;944.4648;;;;
2020/07/11 15:27:36;;;;;;;2.8;2.1;;;;;;;17.05;82.24023;944.4844;;;;
2020/07/11 15:30:01;;;;;;;3.6;2.1;;;;;;;17.11;83.13184;944.4188;;;;
2020/07/11 15:32:28;;;;;;;2.4;2;;;;;;;17.09;83.52246;944.4141;;;;
2020/07/11 15:34:54;;;;;;;3.9;1.8;;;;;;;17.18;82.20605;944.4071;;;;
2020/07/11 15:37:19;;;;;;;2.2;1.7;;;;;;;17.41;81.7168;944.3527;;;;
2020/07/11 15:39:44;;;;;;;3.8;2.8;;;;;;;17.52;81.72559;944.3192;;;;